sensor_id;sensor_type;location;lat;lon;timestamp;P1;durP1;ratioP1;P2;durP2;ratioP2
11907;SDS011;6014;47.690;9.130;2024-02-15T00:01:46;4.70;;;2.50;;
11907;SDS011;6014;47.690;9.130;2024-02-15T00:04:14;4.30;;;2.20;;
11907;SDS011;6014;47.690;9.130;2024-02-15T00:07:00;4.43;;;2.00;;
11907;SDS011;6014;47.690;9.130;2024-02-15T00:09:29;5.17;;;2.00;;
11907;SDS011;6014;47.690;9.130;2024-02-15T00:11:57;5.23;;;2.20;;
11907;SDS011;6014;47.690;9.130;2024-02-15T00:14:26;4.53;;;2.13;;
11907;SDS011;6014;47.690;9.130;2024-02-15T00:16:56;6.33;;;2.20;;
11907;SDS011;6014;47.690;9.130;2024-02-15T00:19:24;4.17;;;2.50;;
11907;SDS011;6014;47.690;9.130;2024-02-15T00:21:56;5.67;;;2.80;;
11907;SDS011;6014;47.690;9.130;2024-02-15T00:24:40;4.77;;;2.40;;
11907;SDS011;6014;47.690;9.130;2024-02-15T00:27:10;4.23;;;2.20;;
11907;SDS011;6014;47.690;9.130;2024-02-15T00:29:38;6.20;;;2.33;;
11907;SDS011;6014;47.690;9.130;2024-02-15T00:32:16;5.20;;;2.70;;
11907;SDS011;6014;47.690;9.130;2024-02-15T00:34:46;5.00;;;2.20;;
11907;SDS011;6014;47.690;9.130;2024-02-15T00:37:15;9.93;;;2.50;;
11907;SDS011;6014;47.690;9.130;2024-02-15T00:39:43;6.40;;;2.50;;
11907;SDS011;6014;47.690;9.130;2024-02-15T00:44:44;4.97;;;2.30;;
11907;SDS011;6014;47.690;9.130;2024-02-15T00:47:13;7.77;;;2.50;;
11907;SDS011;6014;47.690;9.130;2024-02-15T00:49:44;4.43;;;2.30;;
11907;SDS011;6014;47.690;9.130;2024-02-15T00:52:13;4.87;;;2.20;;
11907;SDS011;6014;47.690;9.130;2024-02-15T00:54:57;8.40;;;3.00;;
11907;SDS011;6014;47.690;9.130;2024-02-15T00:57:25;6.80;;;2.63;;
11907;SDS011;6014;47.690;9.130;2024-02-15T00:59:54;4.77;;;2.17;;
11907;SDS011;6014;47.690;9.130;2024-02-15T01:02:23;4.73;;;2.23;;
11907;SDS011;6014;47.690;9.130;2024-02-15T01:04:51;4.90;;;2.30;;
11907;SDS011;6014;47.690;9.130;2024-02-15T01:07:25;4.27;;;2.47;;
11907;SDS011;6014;47.690;9.130;2024-02-15T01:09:55;5.57;;;2.20;;
11907;SDS011;6014;47.690;9.130;2024-02-15T01:12:23;4.77;;;2.30;;
11907;SDS011;6014;47.690;9.130;2024-02-15T01:14:51;4.87;;;2.67;;
11907;SDS011;6014;47.690;9.130;2024-02-15T01:17:19;5.17;;;2.57;;
11907;SDS011;6014;47.690;9.130;2024-02-15T01:19:49;4.53;;;2.63;;
11907;SDS011;6014;47.690;9.130;2024-02-15T01:22:17;5.80;;;2.33;;
11907;SDS011;6014;47.690;9.130;2024-02-15T01:24:45;6.10;;;3.13;;
11907;SDS011;6014;47.690;9.130;2024-02-15T01:27:13;4.23;;;2.40;;
11907;SDS011;6014;47.690;9.130;2024-02-15T01:29:41;6.27;;;2.90;;
11907;SDS011;6014;47.690;9.130;2024-02-15T01:32:10;6.87;;;2.80;;
11907;SDS011;6014;47.690;9.130;2024-02-15T01:34:38;5.03;;;2.80;;
11907;SDS011;6014;47.690;9.130;2024-02-15T01:37:08;5.03;;;2.30;;
11907;SDS011;6014;47.690;9.130;2024-02-15T01:39:37;5.40;;;2.53;;
11907;SDS011;6014;47.690;9.130;2024-02-15T01:42:05;5.47;;;2.57;;
11907;SDS011;6014;47.690;9.130;2024-02-15T01:44:33;5.70;;;2.07;;
11907;SDS011;6014;47.690;9.130;2024-02-15T01:47:03;4.97;;;2.50;;
11907;SDS011;6014;47.690;9.130;2024-02-15T01:49:31;6.80;;;2.50;;
11907;SDS011;6014;47.690;9.130;2024-02-15T01:52:02;4.67;;;2.30;;
11907;SDS011;6014;47.690;9.130;2024-02-15T01:54:36;5.83;;;2.50;;
11907;SDS011;6014;47.690;9.130;2024-02-15T01:57:05;6.50;;;2.40;;
11907;SDS011;6014;47.690;9.130;2024-02-15T01:59:34;5.43;;;2.57;;
11907;SDS011;6014;47.690;9.130;2024-02-15T02:02:02;4.53;;;2.60;;
11907;SDS011;6014;47.690;9.130;2024-02-15T02:04:33;4.93;;;3.20;;
11907;SDS011;6014;47.690;9.130;2024-02-15T02:07:01;5.63;;;2.47;;
11907;SDS011;6014;47.690;9.130;2024-02-15T02:09:29;5.00;;;2.70;;
11907;SDS011;6014;47.690;9.130;2024-02-15T02:11:59;5.83;;;2.83;;
11907;SDS011;6014;47.690;9.130;2024-02-15T02:14:27;4.67;;;2.13;;
11907;SDS011;6014;47.690;9.130;2024-02-15T02:16:56;5.97;;;2.80;;
11907;SDS011;6014;47.690;9.130;2024-02-15T02:19:37;6.30;;;2.47;;
11907;SDS011;6014;47.690;9.130;2024-02-15T02:22:20;7.53;;;2.50;;
11907;SDS011;6014;47.690;9.130;2024-02-15T02:24:57;5.90;;;2.67;;
11907;SDS011;6014;47.690;9.130;2024-02-15T02:27:29;4.93;;;2.40;;
11907;SDS011;6014;47.690;9.130;2024-02-15T02:30:00;7.43;;;2.53;;
11907;SDS011;6014;47.690;9.130;2024-02-15T02:32:32;4.93;;;2.30;;
11907;SDS011;6014;47.690;9.130;2024-02-15T02:35:02;4.33;;;2.33;;
11907;SDS011;6014;47.690;9.130;2024-02-15T02:37:33;4.30;;;2.60;;
11907;SDS011;6014;47.690;9.130;2024-02-15T02:40:05;5.03;;;2.43;;
11907;SDS011;6014;47.690;9.130;2024-02-15T02:42:35;6.33;;;2.60;;
11907;SDS011;6014;47.690;9.130;2024-02-15T02:45:04;5.17;;;2.60;;
11907;SDS011;6014;47.690;9.130;2024-02-15T02:47:32;6.13;;;2.37;;
11907;SDS011;6014;47.690;9.130;2024-02-15T02:50:01;5.50;;;2.50;;
11907;SDS011;6014;47.690;9.130;2024-02-15T02:52:29;5.27;;;2.50;;
11907;SDS011;6014;47.690;9.130;2024-02-15T02:54:57;6.00;;;2.23;;
11907;SDS011;6014;47.690;9.130;2024-02-15T02:57:27;5.20;;;2.27;;
11907;SDS011;6014;47.690;9.130;2024-02-15T02:59:55;6.13;;;2.33;;
11907;SDS011;6014;47.690;9.130;2024-02-15T03:02:23;4.23;;;2.37;;
11907;SDS011;6014;47.690;9.130;2024-02-15T03:04:51;5.83;;;2.40;;
11907;SDS011;6014;47.690;9.130;2024-02-15T03:07:20;5.27;;;2.50;;
11907;SDS011;6014;47.690;9.130;2024-02-15T03:09:49;7.40;;;3.10;;
11907;SDS011;6014;47.690;9.130;2024-02-15T03:12:18;4.80;;;2.50;;
11907;SDS011;6014;47.690;9.130;2024-02-15T03:14:47;5.30;;;2.47;;
11907;SDS011;6014;47.690;9.130;2024-02-15T03:17:15;5.57;;;2.43;;
11907;SDS011;6014;47.690;9.130;2024-02-15T03:19:43;5.03;;;2.40;;
11907;SDS011;6014;47.690;9.130;2024-02-15T03:22:11;3.83;;;2.27;;
11907;SDS011;6014;47.690;9.130;2024-02-15T03:24:40;3.03;;;1.87;;
11907;SDS011;6014;47.690;9.130;2024-02-15T03:27:09;5.63;;;2.53;;
11907;SDS011;6014;47.690;9.130;2024-02-15T03:29:56;4.10;;;2.00;;
11907;SDS011;6014;47.690;9.130;2024-02-15T03:32:26;4.67;;;2.20;;
11907;SDS011;6014;47.690;9.130;2024-02-15T03:34:54;4.40;;;2.20;;
11907;SDS011;6014;47.690;9.130;2024-02-15T03:37:22;6.47;;;2.90;;
11907;SDS011;6014;47.690;9.130;2024-02-15T03:39:51;5.17;;;2.53;;
11907;SDS011;6014;47.690;9.130;2024-02-15T03:42:19;4.57;;;2.50;;
11907;SDS011;6014;47.690;9.130;2024-02-15T03:44:47;5.20;;;2.47;;
11907;SDS011;6014;47.690;9.130;2024-02-15T03:47:16;6.10;;;2.57;;
11907;SDS011;6014;47.690;9.130;2024-02-15T03:49:45;5.37;;;2.70;;
11907;SDS011;6014;47.690;9.130;2024-02-15T03:52:13;5.23;;;2.57;;
11907;SDS011;6014;47.690;9.130;2024-02-15T03:54:41;6.23;;;2.60;;
11907;SDS011;6014;47.690;9.130;2024-02-15T03:57:10;5.30;;;2.23;;
11907;SDS011;6014;47.690;9.130;2024-02-15T03:59:38;13.23;;;2.50;;
11907;SDS011;6014;47.690;9.130;2024-02-15T04:02:07;5.77;;;2.67;;
11907;SDS011;6014;47.690;9.130;2024-02-15T04:04:40;4.87;;;2.30;;
11907;SDS011;6014;47.690;9.130;2024-02-15T04:07:09;5.17;;;2.20;;
11907;SDS011;6014;47.690;9.130;2024-02-15T04:09:38;4.67;;;2.40;;
11907;SDS011;6014;47.690;9.130;2024-02-15T04:12:06;4.23;;;2.23;;
11907;SDS011;6014;47.690;9.130;2024-02-15T04:14:34;5.13;;;2.57;;
11907;SDS011;6014;47.690;9.130;2024-02-15T04:17:04;5.83;;;2.30;;
11907;SDS011;6014;47.690;9.130;2024-02-15T04:19:32;4.90;;;2.50;;
11907;SDS011;6014;47.690;9.130;2024-02-15T04:22:14;5.37;;;2.60;;
11907;SDS011;6014;47.690;9.130;2024-02-15T04:24:42;4.17;;;2.40;;
11907;SDS011;6014;47.690;9.130;2024-02-15T04:27:12;5.30;;;2.40;;
11907;SDS011;6014;47.690;9.130;2024-02-15T04:29:40;4.13;;;2.37;;
11907;SDS011;6014;47.690;9.130;2024-02-15T04:32:10;5.40;;;3.00;;
11907;SDS011;6014;47.690;9.130;2024-02-15T04:34:39;5.63;;;2.80;;
11907;SDS011;6014;47.690;9.130;2024-02-15T04:37:07;6.63;;;2.30;;
11907;SDS011;6014;47.690;9.130;2024-02-15T04:39:37;5.27;;;2.70;;
11907;SDS011;6014;47.690;9.130;2024-02-15T04:42:05;4.97;;;2.47;;
11907;SDS011;6014;47.690;9.130;2024-02-15T04:44:36;4.20;;;2.50;;
11907;SDS011;6014;47.690;9.130;2024-02-15T04:47:05;4.67;;;2.67;;
11907;SDS011;6014;47.690;9.130;2024-02-15T04:49:35;5.70;;;3.10;;
11907;SDS011;6014;47.690;9.130;2024-02-15T04:52:05;5.03;;;2.40;;
11907;SDS011;6014;47.690;9.130;2024-02-15T04:54:33;5.07;;;2.60;;
11907;SDS011;6014;47.690;9.130;2024-02-15T04:57:03;5.00;;;2.57;;
11907;SDS011;6014;47.690;9.130;2024-02-15T04:59:32;6.27;;;2.67;;
11907;SDS011;6014;47.690;9.130;2024-02-15T05:02:01;6.33;;;2.57;;
11907;SDS011;6014;47.690;9.130;2024-02-15T05:04:30;5.50;;;2.80;;
11907;SDS011;6014;47.690;9.130;2024-02-15T05:07:02;5.70;;;2.87;;
11907;SDS011;6014;47.690;9.130;2024-02-15T05:09:31;6.23;;;3.10;;
11907;SDS011;6014;47.690;9.130;2024-02-15T05:12:06;5.57;;;2.60;;
11907;SDS011;6014;47.690;9.130;2024-02-15T05:14:34;5.70;;;2.70;;
11907;SDS011;6014;47.690;9.130;2024-02-15T05:17:06;7.20;;;2.77;;
11907;SDS011;6014;47.690;9.130;2024-02-15T05:19:36;4.87;;;2.87;;
11907;SDS011;6014;47.690;9.130;2024-02-15T05:22:04;5.80;;;2.73;;
11907;SDS011;6014;47.690;9.130;2024-02-15T05:24:33;9.10;;;3.33;;
11907;SDS011;6014;47.690;9.130;2024-02-15T05:27:02;6.30;;;2.53;;
11907;SDS011;6014;47.690;9.130;2024-02-15T05:29:32;4.77;;;3.10;;
11907;SDS011;6014;47.690;9.130;2024-02-15T05:32:02;4.13;;;2.57;;
11907;SDS011;6014;47.690;9.130;2024-02-15T05:34:30;4.13;;;2.30;;
11907;SDS011;6014;47.690;9.130;2024-02-15T05:36:59;4.97;;;2.50;;
11907;SDS011;6014;47.690;9.130;2024-02-15T05:39:27;4.47;;;2.80;;
11907;SDS011;6014;47.690;9.130;2024-02-15T05:41:55;6.43;;;2.67;;
11907;SDS011;6014;47.690;9.130;2024-02-15T05:44:26;5.10;;;2.63;;
11907;SDS011;6014;47.690;9.130;2024-02-15T05:46:56;5.03;;;2.87;;
11907;SDS011;6014;47.690;9.130;2024-02-15T05:49:24;5.90;;;2.60;;
11907;SDS011;6014;47.690;9.130;2024-02-15T05:51:52;7.03;;;3.50;;
11907;SDS011;6014;47.690;9.130;2024-02-15T05:54:20;5.63;;;3.00;;
11907;SDS011;6014;47.690;9.130;2024-02-15T05:56:50;6.13;;;2.73;;
11907;SDS011;6014;47.690;9.130;2024-02-15T05:59:20;5.37;;;2.60;;
11907;SDS011;6014;47.690;9.130;2024-02-15T06:01:48;7.70;;;3.67;;
11907;SDS011;6014;47.690;9.130;2024-02-15T06:04:18;8.37;;;4.00;;
11907;SDS011;6014;47.690;9.130;2024-02-15T06:06:46;8.10;;;3.40;;
11907;SDS011;6014;47.690;9.130;2024-02-15T06:09:15;5.97;;;2.67;;
11907;SDS011;6014;47.690;9.130;2024-02-15T06:11:43;5.00;;;2.60;;
11907;SDS011;6014;47.690;9.130;2024-02-15T06:14:12;6.20;;;3.10;;
11907;SDS011;6014;47.690;9.130;2024-02-15T06:16:41;4.83;;;2.63;;
11907;SDS011;6014;47.690;9.130;2024-02-15T06:19:11;5.83;;;2.43;;
11907;SDS011;6014;47.690;9.130;2024-02-15T06:21:42;4.57;;;3.00;;
11907;SDS011;6014;47.690;9.130;2024-02-15T06:24:28;5.10;;;2.90;;
11907;SDS011;6014;47.690;9.130;2024-02-15T06:26:56;6.13;;;3.47;;
11907;SDS011;6014;47.690;9.130;2024-02-15T06:29:26;6.60;;;3.30;;
11907;SDS011;6014;47.690;9.130;2024-02-15T06:32:22;16.07;;;3.70;;
11907;SDS011;6014;47.690;9.130;2024-02-15T06:35:07;7.57;;;3.67;;
11907;SDS011;6014;47.690;9.130;2024-02-15T06:37:54;9.80;;;3.77;;
11907;SDS011;6014;47.690;9.130;2024-02-15T06:40:40;7.73;;;4.27;;
11907;SDS011;6014;47.690;9.130;2024-02-15T06:43:08;11.70;;;3.87;;
11907;SDS011;6014;47.690;9.130;2024-02-15T06:45:36;8.70;;;3.67;;
11907;SDS011;6014;47.690;9.130;2024-02-15T06:48:07;5.97;;;3.27;;
11907;SDS011;6014;47.690;9.130;2024-02-15T06:50:35;5.77;;;3.50;;
11907;SDS011;6014;47.690;9.130;2024-02-15T06:53:05;4.93;;;2.80;;
11907;SDS011;6014;47.690;9.130;2024-02-15T06:55:34;6.33;;;3.33;;
11907;SDS011;6014;47.690;9.130;2024-02-15T06:58:06;5.40;;;3.23;;
11907;SDS011;6014;47.690;9.130;2024-02-15T07:00:34;6.23;;;3.60;;
11907;SDS011;6014;47.690;9.130;2024-02-15T07:03:02;4.73;;;2.53;;
11907;SDS011;6014;47.690;9.130;2024-02-15T07:05:30;5.83;;;3.33;;
11907;SDS011;6014;47.690;9.130;2024-02-15T07:07:59;4.77;;;3.07;;
11907;SDS011;6014;47.690;9.130;2024-02-15T07:10:29;6.27;;;3.20;;
11907;SDS011;6014;47.690;9.130;2024-02-15T07:12:58;8.63;;;3.83;;
11907;SDS011;6014;47.690;9.130;2024-02-15T07:15:27;6.70;;;3.10;;
11907;SDS011;6014;47.690;9.130;2024-02-15T07:17:58;6.37;;;3.67;;
11907;SDS011;6014;47.690;9.130;2024-02-15T07:20:27;7.87;;;3.73;;
11907;SDS011;6014;47.690;9.130;2024-02-15T07:22:55;6.30;;;3.57;;
11907;SDS011;6014;47.690;9.130;2024-02-15T07:25:24;8.20;;;3.53;;
11907;SDS011;6014;47.690;9.130;2024-02-15T07:27:54;6.50;;;3.40;;
11907;SDS011;6014;47.690;9.130;2024-02-15T07:30:23;7.10;;;3.50;;
11907;SDS011;6014;47.690;9.130;2024-02-15T07:32:51;5.70;;;3.63;;
11907;SDS011;6014;47.690;9.130;2024-02-15T07:35:20;7.93;;;4.73;;
11907;SDS011;6014;47.690;9.130;2024-02-15T07:37:51;8.47;;;4.40;;
11907;SDS011;6014;47.690;9.130;2024-02-15T07:40:21;6.43;;;3.90;;
11907;SDS011;6014;47.690;9.130;2024-02-15T07:42:56;6.70;;;3.90;;
11907;SDS011;6014;47.690;9.130;2024-02-15T07:45:25;6.30;;;3.30;;
11907;SDS011;6014;47.690;9.130;2024-02-15T07:47:54;4.73;;;2.97;;
11907;SDS011;6014;47.690;9.130;2024-02-15T07:50:28;7.47;;;3.63;;
11907;SDS011;6014;47.690;9.130;2024-02-15T07:52:57;6.33;;;3.40;;
11907;SDS011;6014;47.690;9.130;2024-02-15T07:55:25;6.63;;;3.20;;
11907;SDS011;6014;47.690;9.130;2024-02-15T07:57:55;7.87;;;3.33;;
11907;SDS011;6014;47.690;9.130;2024-02-15T08:00:25;6.40;;;3.50;;
11907;SDS011;6014;47.690;9.130;2024-02-15T08:03:03;4.90;;;3.10;;
11907;SDS011;6014;47.690;9.130;2024-02-15T08:05:31;7.33;;;3.40;;
11907;SDS011;6014;47.690;9.130;2024-02-15T08:08:00;7.23;;;3.43;;
11907;SDS011;6014;47.690;9.130;2024-02-15T08:10:30;6.63;;;3.37;;
11907;SDS011;6014;47.690;9.130;2024-02-15T08:13:00;9.37;;;3.87;;
11907;SDS011;6014;47.690;9.130;2024-02-15T08:15:28;8.73;;;3.33;;
11907;SDS011;6014;47.690;9.130;2024-02-15T08:17:56;7.17;;;3.60;;
11907;SDS011;6014;47.690;9.130;2024-02-15T08:20:25;7.70;;;3.87;;
11907;SDS011;6014;47.690;9.130;2024-02-15T08:22:57;7.20;;;4.10;;
11907;SDS011;6014;47.690;9.130;2024-02-15T08:25:26;10.17;;;3.73;;
11907;SDS011;6014;47.690;9.130;2024-02-15T08:27:55;6.23;;;3.80;;
11907;SDS011;6014;47.690;9.130;2024-02-15T08:30:24;7.43;;;3.80;;
11907;SDS011;6014;47.690;9.130;2024-02-15T08:32:54;6.97;;;3.67;;
11907;SDS011;6014;47.690;9.130;2024-02-15T08:35:22;6.57;;;4.00;;
11907;SDS011;6014;47.690;9.130;2024-02-15T08:37:50;8.43;;;4.27;;
11907;SDS011;6014;47.690;9.130;2024-02-15T08:40:20;5.40;;;3.50;;
11907;SDS011;6014;47.690;9.130;2024-02-15T08:42:52;8.10;;;3.58;;
11907;SDS011;6014;47.690;9.130;2024-02-15T08:45:20;6.53;;;3.97;;
11907;SDS011;6014;47.690;9.130;2024-02-15T08:47:51;6.72;;;4.10;;
11907;SDS011;6014;47.690;9.130;2024-02-15T08:50:20;7.65;;;3.90;;
11907;SDS011;6014;47.690;9.130;2024-02-15T08:52:50;8.82;;;3.70;;
11907;SDS011;6014;47.690;9.130;2024-02-15T08:55:25;10.25;;;4.15;;
11907;SDS011;6014;47.690;9.130;2024-02-15T08:57:54;8.35;;;3.83;;
11907;SDS011;6014;47.690;9.130;2024-02-15T09:00:22;7.20;;;3.53;;
11907;SDS011;6014;47.690;9.130;2024-02-15T09:02:54;8.73;;;4.05;;
11907;SDS011;6014;47.690;9.130;2024-02-15T09:05:23;5.75;;;3.28;;
11907;SDS011;6014;47.690;9.130;2024-02-15T09:07:52;6.65;;;3.55;;
11907;SDS011;6014;47.690;9.130;2024-02-15T09:10:21;7.85;;;4.40;;
11907;SDS011;6014;47.690;9.130;2024-02-15T09:12:49;8.85;;;4.20;;
11907;SDS011;6014;47.690;9.130;2024-02-15T09:15:17;7.03;;;3.75;;
11907;SDS011;6014;47.690;9.130;2024-02-15T09:17:46;7.13;;;3.65;;
11907;SDS011;6014;47.690;9.130;2024-02-15T09:20:15;8.40;;;4.07;;
11907;SDS011;6014;47.690;9.130;2024-02-15T09:22:47;8.32;;;3.92;;
11907;SDS011;6014;47.690;9.130;2024-02-15T09:25:16;7.10;;;4.10;;
11907;SDS011;6014;47.690;9.130;2024-02-15T09:27:44;6.05;;;3.40;;
11907;SDS011;6014;47.690;9.130;2024-02-15T09:30:13;7.53;;;3.28;;
11907;SDS011;6014;47.690;9.130;2024-02-15T09:32:42;10.55;;;3.53;;
11907;SDS011;6014;47.690;9.130;2024-02-15T09:35:12;6.78;;;3.40;;
11907;SDS011;6014;47.690;9.130;2024-02-15T09:37:46;6.28;;;3.58;;
11907;SDS011;6014;47.690;9.130;2024-02-15T09:40:16;6.60;;;3.58;;
11907;SDS011;6014;47.690;9.130;2024-02-15T09:42:46;6.30;;;3.60;;
11907;SDS011;6014;47.690;9.130;2024-02-15T09:45:15;11.15;;;3.53;;
11907;SDS011;6014;47.690;9.130;2024-02-15T09:47:44;7.00;;;3.63;;
11907;SDS011;6014;47.690;9.130;2024-02-15T09:50:15;6.10;;;3.30;;
11907;SDS011;6014;47.690;9.130;2024-02-15T09:52:48;6.72;;;3.85;;
11907;SDS011;6014;47.690;9.130;2024-02-15T09:55:17;5.70;;;3.35;;
11907;SDS011;6014;47.690;9.130;2024-02-15T09:57:46;6.82;;;3.65;;
11907;SDS011;6014;47.690;9.130;2024-02-15T10:00:15;7.18;;;3.80;;
11907;SDS011;6014;47.690;9.130;2024-02-15T10:02:47;8.15;;;3.55;;
11907;SDS011;6014;47.690;9.130;2024-02-15T10:05:19;8.70;;;3.80;;
11907;SDS011;6014;47.690;9.130;2024-02-15T10:07:51;6.85;;;3.25;;
11907;SDS011;6014;47.690;9.130;2024-02-15T10:10:19;7.10;;;3.70;;
11907;SDS011;6014;47.690;9.130;2024-02-15T10:12:49;6.50;;;3.47;;
11907;SDS011;6014;47.690;9.130;2024-02-15T10:15:26;7.43;;;3.30;;
11907;SDS011;6014;47.690;9.130;2024-02-15T10:17:59;8.07;;;3.53;;
11907;SDS011;6014;47.690;9.130;2024-02-15T10:20:28;6.70;;;3.45;;
11907;SDS011;6014;47.690;9.130;2024-02-15T10:23:11;8.00;;;3.92;;
11907;SDS011;6014;47.690;9.130;2024-02-15T10:25:44;7.45;;;4.10;;
11907;SDS011;6014;47.690;9.130;2024-02-15T10:28:14;6.82;;;3.55;;
11907;SDS011;6014;47.690;9.130;2024-02-15T10:30:50;6.18;;;3.78;;
11907;SDS011;6014;47.690;9.130;2024-02-15T10:33:19;6.95;;;3.42;;
11907;SDS011;6014;47.690;9.130;2024-02-15T10:36:04;5.13;;;2.80;;
11907;SDS011;6014;47.690;9.130;2024-02-15T10:38:35;6.72;;;3.42;;
11907;SDS011;6014;47.690;9.130;2024-02-15T10:41:04;8.27;;;4.28;;
11907;SDS011;6014;47.690;9.130;2024-02-15T10:43:33;9.55;;;4.07;;
11907;SDS011;6014;47.690;9.130;2024-02-15T10:46:01;9.25;;;4.45;;
11907;SDS011;6014;47.690;9.130;2024-02-15T10:48:31;7.63;;;3.90;;
11907;SDS011;6014;47.690;9.130;2024-02-15T10:51:00;7.57;;;4.40;;
11907;SDS011;6014;47.690;9.130;2024-02-15T10:53:38;7.55;;;4.03;;
11907;SDS011;6014;47.690;9.130;2024-02-15T10:56:15;8.35;;;4.03;;
11907;SDS011;6014;47.690;9.130;2024-02-15T10:58:46;6.65;;;4.22;;
11907;SDS011;6014;47.690;9.130;2024-02-15T11:01:17;9.55;;;4.20;;
11907;SDS011;6014;47.690;9.130;2024-02-15T11:03:47;7.95;;;4.53;;
11907;SDS011;6014;47.690;9.130;2024-02-15T11:06:19;10.38;;;4.63;;
11907;SDS011;6014;47.690;9.130;2024-02-15T11:08:50;12.20;;;5.40;;
11907;SDS011;6014;47.690;9.130;2024-02-15T11:11:18;10.23;;;5.07;;
11907;SDS011;6014;47.690;9.130;2024-02-15T11:13:47;12.35;;;6.13;;
11907;SDS011;6014;47.690;9.130;2024-02-15T11:19:08;8.82;;;4.75;;
11907;SDS011;6014;47.690;9.130;2024-02-15T11:21:52;10.48;;;4.95;;
11907;SDS011;6014;47.690;9.130;2024-02-15T11:24:28;8.48;;;4.90;;
11907;SDS011;6014;47.690;9.130;2024-02-15T11:27:00;10.85;;;4.78;;
11907;SDS011;6014;47.690;9.130;2024-02-15T11:29:49;10.80;;;5.00;;
11907;SDS011;6014;47.690;9.130;2024-02-15T11:32:38;7.38;;;4.10;;
11907;SDS011;6014;47.690;9.130;2024-02-15T11:35:17;6.85;;;4.18;;
11907;SDS011;6014;47.690;9.130;2024-02-15T11:37:54;9.77;;;4.22;;
11907;SDS011;6014;47.690;9.130;2024-02-15T11:40:28;7.13;;;3.67;;
11907;SDS011;6014;47.690;9.130;2024-02-15T11:46:03;8.95;;;4.00;;
11907;SDS011;6014;47.690;9.130;2024-02-15T11:48:31;6.65;;;3.58;;
11907;SDS011;6014;47.690;9.130;2024-02-15T11:51:05;8.10;;;3.97;;
11907;SDS011;6014;47.690;9.130;2024-02-15T11:53:44;8.27;;;4.28;;
11907;SDS011;6014;47.690;9.130;2024-02-15T11:56:22;7.47;;;3.85;;
11907;SDS011;6014;47.690;9.130;2024-02-15T11:59:09;8.35;;;4.22;;
11907;SDS011;6014;47.690;9.130;2024-02-15T12:01:45;7.97;;;4.25;;
11907;SDS011;6014;47.690;9.130;2024-02-15T12:04:30;6.38;;;3.70;;
11907;SDS011;6014;47.690;9.130;2024-02-15T12:07:16;7.00;;;3.95;;
11907;SDS011;6014;47.690;9.130;2024-02-15T12:10:02;7.30;;;3.65;;
11907;SDS011;6014;47.690;9.130;2024-02-15T12:12:53;6.93;;;3.40;;
11907;SDS011;6014;47.690;9.130;2024-02-15T12:15:38;7.32;;;3.88;;
11907;SDS011;6014;47.690;9.130;2024-02-15T12:18:24;8.73;;;4.03;;
11907;SDS011;6014;47.690;9.130;2024-02-15T12:21:09;8.43;;;4.15;;
11907;SDS011;6014;47.690;9.130;2024-02-15T12:23:43;6.45;;;3.72;;
11907;SDS011;6014;47.690;9.130;2024-02-15T12:26:12;8.30;;;4.20;;
11907;SDS011;6014;47.690;9.130;2024-02-15T12:28:42;6.30;;;3.88;;
11907;SDS011;6014;47.690;9.130;2024-02-15T12:31:13;7.55;;;3.63;;
11907;SDS011;6014;47.690;9.130;2024-02-15T12:33:41;7.30;;;3.92;;
11907;SDS011;6014;47.690;9.130;2024-02-15T12:36:09;7.57;;;4.15;;
11907;SDS011;6014;47.690;9.130;2024-02-15T12:38:37;9.80;;;4.03;;
11907;SDS011;6014;47.690;9.130;2024-02-15T12:41:17;7.20;;;3.65;;
11907;SDS011;6014;47.690;9.130;2024-02-15T12:43:47;8.45;;;4.05;;
11907;SDS011;6014;47.690;9.130;2024-02-15T12:46:20;6.70;;;3.63;;
11907;SDS011;6014;47.690;9.130;2024-02-15T12:48:48;7.28;;;3.85;;
11907;SDS011;6014;47.690;9.130;2024-02-15T12:51:19;8.00;;;3.50;;
11907;SDS011;6014;47.690;9.130;2024-02-15T12:53:47;7.50;;;3.70;;
11907;SDS011;6014;47.690;9.130;2024-02-15T12:56:19;5.82;;;3.22;;
11907;SDS011;6014;47.690;9.130;2024-02-15T12:58:51;7.07;;;3.35;;
11907;SDS011;6014;47.690;9.130;2024-02-15T13:01:19;5.78;;;3.22;;
11907;SDS011;6014;47.690;9.130;2024-02-15T13:03:48;6.97;;;3.50;;
11907;SDS011;6014;47.690;9.130;2024-02-15T13:06:17;7.38;;;3.30;;
11907;SDS011;6014;47.690;9.130;2024-02-15T13:08:50;9.02;;;4.35;;
11907;SDS011;6014;47.690;9.130;2024-02-15T13:11:18;9.55;;;3.28;;
11907;SDS011;6014;47.690;9.130;2024-02-15T13:13:46;7.13;;;3.45;;
11907;SDS011;6014;47.690;9.130;2024-02-15T13:16:16;7.70;;;3.17;;
11907;SDS011;6014;47.690;9.130;2024-02-15T13:18:45;8.20;;;3.33;;
11907;SDS011;6014;47.690;9.130;2024-02-15T13:21:13;8.52;;;3.13;;
11907;SDS011;6014;47.690;9.130;2024-02-15T13:23:43;5.22;;;3.10;;
11907;SDS011;6014;47.690;9.130;2024-02-15T13:26:11;7.32;;;3.10;;
11907;SDS011;6014;47.690;9.130;2024-02-15T13:28:39;6.38;;;3.10;;
11907;SDS011;6014;47.690;9.130;2024-02-15T13:31:07;7.38;;;3.30;;
11907;SDS011;6014;47.690;9.130;2024-02-15T13:33:39;6.57;;;3.13;;
11907;SDS011;6014;47.690;9.130;2024-02-15T13:36:07;5.65;;;3.17;;
11907;SDS011;6014;47.690;9.130;2024-02-15T13:38:37;7.35;;;2.95;;
11907;SDS011;6014;47.690;9.130;2024-02-15T13:41:05;5.90;;;2.97;;
11907;SDS011;6014;47.690;9.130;2024-02-15T13:43:34;5.10;;;2.90;;
11907;SDS011;6014;47.690;9.130;2024-02-15T13:46:02;5.82;;;2.83;;
11907;SDS011;6014;47.690;9.130;2024-02-15T13:48:31;5.95;;;2.80;;
11907;SDS011;6014;47.690;9.130;2024-02-15T13:51:00;4.10;;;2.35;;
11907;SDS011;6014;47.690;9.130;2024-02-15T13:53:30;4.35;;;2.40;;
11907;SDS011;6014;47.690;9.130;2024-02-15T13:55:58;5.22;;;2.70;;
11907;SDS011;6014;47.690;9.130;2024-02-15T13:58:26;5.32;;;2.67;;
11907;SDS011;6014;47.690;9.130;2024-02-15T14:00:54;7.15;;;2.55;;
11907;SDS011;6014;47.690;9.130;2024-02-15T14:03:24;6.68;;;3.10;;
11907;SDS011;6014;47.690;9.130;2024-02-15T14:05:52;7.57;;;2.80;;
11907;SDS011;6014;47.690;9.130;2024-02-15T14:08:21;4.93;;;2.50;;
11907;SDS011;6014;47.690;9.130;2024-02-15T14:10:51;5.93;;;3.05;;
11907;SDS011;6014;47.690;9.130;2024-02-15T14:13:20;5.90;;;2.78;;
11907;SDS011;6014;47.690;9.130;2024-02-15T14:15:49;6.70;;;2.85;;
11907;SDS011;6014;47.690;9.130;2024-02-15T14:18:17;5.45;;;2.70;;
11907;SDS011;6014;47.690;9.130;2024-02-15T14:20:48;5.55;;;2.63;;
11907;SDS011;6014;47.690;9.130;2024-02-15T14:23:17;5.53;;;2.75;;
11907;SDS011;6014;47.690;9.130;2024-02-15T14:25:47;6.43;;;2.55;;
11907;SDS011;6014;47.690;9.130;2024-02-15T14:28:18;5.53;;;2.65;;
11907;SDS011;6014;47.690;9.130;2024-02-15T14:30:46;5.13;;;2.50;;
11907;SDS011;6014;47.690;9.130;2024-02-15T14:33:31;9.18;;;2.92;;
11907;SDS011;6014;47.690;9.130;2024-02-15T14:36:01;8.10;;;3.10;;
11907;SDS011;6014;47.690;9.130;2024-02-15T14:38:30;5.38;;;2.50;;
11907;SDS011;6014;47.690;9.130;2024-02-15T14:41:02;5.13;;;2.80;;
11907;SDS011;6014;47.690;9.130;2024-02-15T14:43:34;7.05;;;3.05;;
11907;SDS011;6014;47.690;9.130;2024-02-15T14:46:02;5.85;;;2.65;;
11907;SDS011;6014;47.690;9.130;2024-02-15T14:48:31;6.78;;;2.72;;
11907;SDS011;6014;47.690;9.130;2024-02-15T14:51:00;7.38;;;2.90;;
11907;SDS011;6014;47.690;9.130;2024-02-15T14:53:29;7.28;;;2.38;;
11907;SDS011;6014;47.690;9.130;2024-02-15T14:55:59;5.22;;;2.72;;
11907;SDS011;6014;47.690;9.130;2024-02-15T14:58:31;5.93;;;2.47;;
11907;SDS011;6014;47.690;9.130;2024-02-15T15:00:59;5.63;;;2.50;;
11907;SDS011;6014;47.690;9.130;2024-02-15T15:03:35;4.90;;;2.00;;
11907;SDS011;6014;47.690;9.130;2024-02-15T15:06:05;5.63;;;2.20;;
11907;SDS011;6014;47.690;9.130;2024-02-15T15:08:52;4.70;;;1.83;;
11907;SDS011;6014;47.690;9.130;2024-02-15T15:14:36;2.78;;;1.42;;
11907;SDS011;6014;47.690;9.130;2024-02-15T15:17:18;3.05;;;1.67;;
11907;SDS011;6014;47.690;9.130;2024-02-15T15:19:47;3.72;;;1.60;;
11907;SDS011;6014;47.690;9.130;2024-02-15T15:22:16;4.18;;;2.20;;
11907;SDS011;6014;47.690;9.130;2024-02-15T15:24:48;4.47;;;1.70;;
11907;SDS011;6014;47.690;9.130;2024-02-15T15:27:18;3.50;;;1.98;;
11907;SDS011;6014;47.690;9.130;2024-02-15T15:29:46;7.97;;;2.33;;
11907;SDS011;6014;47.690;9.130;2024-02-15T15:32:14;4.18;;;2.00;;
11907;SDS011;6014;47.690;9.130;2024-02-15T15:37:52;5.28;;;2.40;;